createdAt,value
2022-12-25T00:01:41.354Z,8.30
2022-12-25T00:03:47.882Z,8.60
2022-12-25T00:05:55.548Z,9.55
2022-12-25T00:08:00.525Z,8.50
2022-12-25T00:10:05.513Z,7.18
2022-12-25T00:12:10.543Z,7.38
2022-12-25T00:14:15.574Z,9.32
2022-12-25T00:16:24.136Z,9.57
2022-12-25T00:18:29.932Z,11.35
2022-12-25T00:20:35.184Z,9.75
2022-12-25T00:22:43.063Z,9.98
2022-12-25T00:26:55.160Z,8.05
2022-12-25T00:29:01.504Z,7.32
2022-12-25T00:31:11.765Z,9.02
2022-12-25T00:33:16.898Z,8.43
2022-12-25T00:35:21.864Z,7.50
2022-12-25T00:37:27.371Z,7.85
2022-12-25T00:39:35.284Z,7.10
2022-12-25T00:43:57.455Z,6.53
2022-12-25T00:46:06.610Z,6.05
2022-12-25T00:48:11.719Z,5.93
2022-12-25T00:52:25.365Z,5.43
2022-12-25T00:54:30.727Z,6.85
2022-12-25T00:56:38.824Z,5.65
2022-12-25T00:58:44.043Z,5.93
2022-12-25T01:00:50.207Z,6.78
2022-12-25T01:02:55.653Z,6.00
2022-12-25T01:05:01.321Z,5.65
2022-12-25T01:07:06.268Z,6.03
2022-12-25T01:09:24.516Z,6.22
2022-12-25T01:11:30.689Z,5.65
2022-12-25T01:13:40.173Z,5.78
2022-12-25T01:15:45.079Z,5.20
2022-12-25T01:17:50.460Z,5.45
2022-12-25T01:19:55.765Z,5.15
2022-12-25T01:22:01.062Z,5.65
2022-12-25T01:24:06.915Z,5.10
2022-12-25T01:26:15.198Z,6.25
2022-12-25T01:28:20.152Z,5.90
2022-12-25T01:30:28.077Z,5.85
2022-12-25T01:32:33.027Z,6.72
2022-12-25T01:34:35.604Z,7.57
2022-12-25T01:36:48.087Z,5.63
2022-12-25T01:38:54.867Z,5.82
2022-12-25T01:40:59.879Z,7.40
2022-12-25T01:43:06.265Z,5.93
2022-12-25T01:45:38.189Z,6.38
2022-12-25T01:47:43.228Z,6.00
2022-12-25T01:49:52.308Z,5.95
2022-12-25T01:52:03.570Z,5.90
2022-12-25T01:54:12.289Z,5.18
2022-12-25T01:56:17.296Z,5.47
2022-12-25T01:58:22.796Z,5.32
2022-12-25T02:00:27.751Z,5.20
2022-12-25T02:02:36.032Z,5.82
2022-12-25T02:04:49.182Z,6.43
2022-12-25T02:06:55.051Z,6.32
2022-12-25T02:09:00.954Z,6.07
2022-12-25T02:11:06.293Z,6.13
2022-12-25T02:13:11.516Z,5.45
2022-12-25T02:15:23.350Z,5.45
2022-12-25T02:17:41.182Z,6.20
2022-12-25T02:20:18.865Z,4.95
2022-12-25T02:22:39.328Z,5.13
2022-12-25T02:25:05.229Z,5.75
2022-12-25T02:27:27.228Z,5.65
2022-12-25T02:29:49.202Z,5.22
2022-12-25T02:32:02.189Z,5.43
2022-12-25T02:34:15.008Z,4.75
2022-12-25T02:36:26.474Z,5.22
2022-12-25T02:38:38.498Z,5.78
2022-12-25T02:40:48.244Z,5.95
2022-12-25T02:43:11.790Z,5.20
2022-12-25T02:45:39.246Z,4.95
2022-12-25T02:47:57.157Z,4.95
2022-12-25T02:50:16.289Z,5.22
2022-12-25T02:52:37.932Z,6.50
2022-12-25T02:55:02.086Z,5.20
2022-12-25T02:57:26.299Z,5.43
2022-12-25T02:59:46.993Z,5.10
2022-12-25T03:02:08.433Z,5.22
2022-12-25T03:04:33.811Z,5.75
2022-12-25T03:06:46.668Z,5.35
2022-12-25T03:09:19.477Z,5.22
2022-12-25T03:11:33.894Z,5.07
2022-12-25T03:13:42.383Z,5.35
2022-12-25T03:16:01.535Z,5.50
2022-12-25T03:18:16.152Z,6.00
2022-12-25T03:20:33.835Z,5.45
2022-12-25T03:25:09.159Z,4.85
2022-12-25T03:27:14.095Z,5.88
2022-12-25T03:29:38.991Z,5.90
2022-12-25T03:31:50.948Z,6.13
2022-12-25T03:34:44.251Z,5.80
2022-12-25T03:37:09.933Z,6.38
2022-12-25T03:39:36.979Z,6.15
2022-12-25T03:42:00.599Z,5.85
2022-12-25T03:44:29.703Z,5.72
2022-12-25T03:46:54.109Z,5.05
2022-12-25T03:49:26.068Z,5.03
2022-12-25T03:51:51.475Z,5.50
2022-12-25T03:54:13.125Z,5.45
2022-12-25T03:56:32.912Z,4.70
2022-12-25T03:58:50.787Z,4.43
2022-12-25T04:01:09.021Z,4.80
2022-12-25T04:03:26.614Z,4.70
2022-12-25T04:05:44.052Z,5.38
2022-12-25T04:08:04.017Z,5.03
2022-12-25T04:10:23.969Z,5.45
2022-12-25T04:12:41.407Z,5.38
2022-12-25T04:17:16.381Z,4.32
2022-12-25T04:19:34.229Z,4.55
2022-12-25T04:21:51.686Z,4.70
2022-12-25T04:24:23.774Z,4.50
2022-12-25T04:26:41.515Z,4.70
2022-12-25T04:31:25.075Z,4.85
2022-12-25T04:33:42.523Z,5.03
2022-12-25T04:36:02.631Z,6.05
2022-12-25T04:38:07.549Z,5.10
2022-12-25T04:40:15.875Z,4.53
2022-12-25T04:42:20.913Z,4.70
2022-12-25T04:44:26.212Z,6.30
2022-12-25T04:46:31.784Z,5.03
2022-12-25T04:48:38.907Z,5.15
2022-12-25T04:50:43.853Z,5.20
2022-12-25T04:52:48.812Z,5.00
2022-12-25T04:54:53.885Z,4.85
2022-12-25T04:57:01.407Z,5.75
2022-12-25T05:01:11.852Z,4.85
2022-12-25T05:03:16.868Z,5.90
2022-12-25T05:05:22.226Z,5.45
2022-12-25T05:07:27.532Z,5.40
2022-12-25T05:09:32.674Z,6.40
2022-12-25T05:11:37.629Z,5.40
2022-12-25T05:13:45.828Z,5.45
2022-12-25T05:15:50.960Z,5.30
2022-12-25T05:17:55.940Z,6.28
2022-12-25T05:20:00.937Z,5.82
2022-12-25T05:22:05.864Z,5.82
2022-12-25T05:24:11.038Z,6.10
2022-12-25T05:26:16.624Z,6.18
2022-12-25T05:28:21.867Z,6.32
2022-12-25T05:30:29.404Z,6.22
2022-12-25T05:34:39.521Z,6.05
2022-12-25T05:36:44.526Z,6.15
2022-12-25T05:38:49.549Z,5.93
2022-12-25T05:40:55.043Z,5.97
2022-12-25T05:43:00.040Z,5.47
2022-12-25T05:45:04.945Z,6.03
2022-12-25T05:47:12.451Z,6.00
2022-12-25T05:49:17.464Z,5.95
2022-12-25T05:51:22.495Z,5.70
2022-12-25T05:53:27.415Z,5.95
2022-12-25T05:55:32.396Z,5.15
2022-12-25T05:57:37.343Z,6.32
2022-12-25T05:59:42.335Z,6.65
2022-12-25T06:01:48.220Z,6.38
2022-12-25T06:03:56.043Z,5.97
2022-12-25T06:06:01.028Z,5.95
2022-12-25T06:08:06.052Z,5.82
2022-12-25T06:10:12.284Z,6.03
2022-12-25T06:12:17.298Z,6.25
2022-12-25T06:14:22.228Z,6.05
2022-12-25T06:16:27.372Z,6.55
2022-12-25T06:18:33.188Z,6.82
2022-12-25T06:20:43.534Z,6.25
2022-12-25T06:22:48.442Z,7.13
2022-12-25T06:24:53.433Z,7.28
2022-12-25T06:26:58.449Z,7.05
2022-12-25T06:29:03.403Z,6.90
2022-12-25T06:31:12.505Z,7.55
2022-12-25T06:33:17.505Z,6.88
2022-12-25T06:35:22.478Z,7.88
2022-12-25T06:37:30.038Z,7.43
2022-12-25T06:39:35.308Z,7.60
2022-12-25T06:41:40.258Z,7.13
2022-12-25T06:43:45.597Z,8.38
2022-12-25T06:45:51.661Z,8.13
2022-12-25T06:47:56.642Z,8.23
2022-12-25T06:50:01.887Z,7.55
2022-12-25T06:52:06.998Z,8.07
2022-12-25T06:54:14.518Z,8.55
2022-12-25T06:56:24.104Z,8.05
2022-12-25T06:58:29.253Z,8.00
2022-12-25T07:00:34.616Z,8.35
2022-12-25T07:02:40.462Z,8.82
2022-12-25T07:04:45.976Z,7.88
2022-12-25T07:06:51.060Z,8.55
2022-12-25T07:08:56.427Z,8.68
2022-12-25T07:11:03.966Z,8.02
2022-12-25T07:15:14.435Z,8.07
2022-12-25T07:17:20.545Z,8.90
2022-12-25T07:19:25.801Z,8.68
2022-12-25T07:21:30.748Z,8.32
2022-12-25T07:23:35.954Z,9.43
2022-12-25T07:25:41.260Z,8.63
2022-12-25T07:27:48.829Z,8.98
2022-12-25T07:29:53.794Z,8.20
2022-12-25T07:31:58.856Z,9.77
2022-12-25T07:34:04.205Z,9.05
2022-12-25T07:36:12.970Z,10.52
2022-12-25T07:38:18.645Z,9.93
2022-12-25T07:40:24.596Z,10.35
2022-12-25T07:42:29.517Z,9.25
2022-12-25T07:44:37.020Z,9.05
2022-12-25T07:46:41.954Z,9.13
2022-12-25T07:48:46.927Z,9.48
2022-12-25T07:50:57.732Z,8.88
2022-12-25T07:53:02.689Z,8.45
2022-12-25T07:55:08.460Z,7.57
2022-12-25T07:57:13.414Z,8.35
2022-12-25T07:59:18.319Z,8.25
2022-12-25T08:01:29.877Z,9.35
2022-12-25T08:03:35.540Z,10.07
2022-12-25T08:05:40.645Z,8.95
2022-12-25T08:07:45.557Z,9.70
2022-12-25T08:09:50.535Z,6.30
2022-12-25T08:11:55.457Z,5.85
2022-12-25T08:14:00.640Z,6.10
2022-12-25T08:16:09.306Z,5.65
2022-12-25T08:18:16.930Z,5.35
2022-12-25T08:20:22.611Z,5.50
2022-12-25T08:22:27.521Z,6.00
2022-12-25T08:24:33.245Z,6.18
2022-12-25T08:26:38.151Z,5.82
2022-12-25T08:28:43.636Z,5.80
2022-12-25T08:30:49.439Z,5.95
2022-12-25T08:32:54.828Z,5.63
2022-12-25T08:35:02.649Z,5.47
2022-12-25T08:37:07.722Z,5.68
2022-12-25T08:39:12.988Z,5.47
2022-12-25T08:41:19.502Z,5.45
2022-12-25T08:43:24.430Z,5.25
2022-12-25T08:45:34.680Z,4.85
2022-12-25T08:47:40.276Z,4.70
2022-12-25T08:49:45.547Z,5.28
2022-12-25T08:51:53.612Z,4.93
2022-12-25T08:54:03.141Z,5.85
2022-12-25T08:56:09.058Z,5.97
2022-12-25T08:58:15.097Z,5.97
2022-12-25T09:00:21.766Z,6.30
2022-12-25T09:02:26.927Z,6.30
2022-12-25T09:04:32.375Z,5.60
2022-12-25T09:06:37.358Z,6.78
2022-12-25T09:08:49.031Z,5.88
2022-12-25T09:10:55.223Z,5.00
2022-12-25T09:13:00.487Z,4.40
2022-12-25T09:15:06.193Z,3.88
2022-12-25T09:17:11.287Z,3.75
2022-12-25T09:19:16.248Z,3.78
2022-12-25T09:21:21.855Z,2.90
2022-12-25T09:23:27.236Z,2.13
2022-12-25T09:25:34.729Z,2.53
2022-12-25T09:27:39.720Z,2.35
2022-12-25T09:29:44.705Z,2.33
2022-12-25T09:31:49.696Z,2.70
2022-12-25T09:33:58.379Z,1.90
2022-12-25T09:36:05.548Z,2.58
2022-12-25T09:38:11.479Z,2.35
2022-12-25T09:40:20.806Z,2.63
2022-12-25T09:42:34.551Z,3.13
2022-12-25T09:44:45.724Z,2.63
2022-12-25T09:46:56.635Z,2.80
2022-12-25T09:49:09.781Z,2.30
2022-12-25T09:51:19.242Z,2.25
2022-12-25T09:53:28.134Z,1.83
2022-12-25T09:55:36.965Z,1.90
2022-12-25T09:57:44.517Z,2.00
2022-12-25T09:59:49.619Z,1.65
2022-12-25T10:02:13.392Z,1.90
2022-12-25T10:04:40.996Z,1.73
2022-12-25T10:07:05.844Z,1.95
2022-12-25T10:09:41.819Z,2.22
2022-12-25T10:12:15.577Z,1.83
2022-12-25T10:14:31.421Z,1.90
2022-12-25T10:16:47.995Z,1.65
2022-12-25T10:19:13.045Z,1.38
2022-12-25T10:21:21.349Z,1.70
2022-12-25T10:23:32.255Z,1.50
2022-12-25T10:25:41.322Z,1.52
2022-12-25T10:27:46.859Z,1.38
2022-12-25T10:29:57.074Z,1.83
2022-12-25T10:32:02.223Z,1.40
2022-12-25T10:34:08.793Z,1.73
2022-12-25T10:36:14.460Z,1.80
2022-12-25T10:38:22.447Z,1.95
2022-12-25T10:40:43.198Z,1.90
2022-12-25T10:42:52.550Z,1.80
2022-12-25T10:45:02.842Z,1.92
2022-12-25T10:47:08.682Z,1.85
2022-12-25T10:49:19.471Z,1.40
2022-12-25T10:51:34.126Z,1.80
2022-12-25T10:53:43.414Z,2.00
2022-12-25T10:55:58.768Z,1.90
2022-12-25T10:58:04.254Z,2.13
2022-12-25T11:00:24.634Z,2.08
2022-12-25T11:02:32.028Z,2.13
2022-12-25T11:04:38.461Z,2.58
2022-12-25T11:06:45.690Z,2.40
2022-12-25T11:08:56.124Z,1.70
2022-12-25T11:11:06.373Z,2.30
2022-12-25T11:13:24.407Z,3.47
2022-12-25T11:15:41.960Z,2.53
2022-12-25T11:20:00.675Z,1.80
2022-12-25T11:22:06.598Z,1.63
2022-12-25T11:24:23.495Z,2.17
2022-12-25T11:26:29.877Z,1.88
2022-12-25T11:28:39.799Z,1.88
2022-12-25T11:30:55.201Z,1.85
2022-12-25T11:33:03.542Z,1.63
2022-12-25T11:35:15.305Z,1.55
2022-12-25T11:37:29.303Z,1.60
2022-12-25T11:39:38.198Z,1.80
2022-12-25T11:41:44.261Z,1.90
2022-12-25T11:43:58.060Z,1.75
2022-12-25T11:46:16.294Z,1.75
2022-12-25T11:48:28.567Z,1.70
2022-12-25T11:50:37.920Z,1.73
2022-12-25T11:52:47.596Z,1.90
2022-12-25T11:55:01.039Z,2.28
2022-12-25T11:57:09.447Z,2.05
2022-12-25T11:59:26.052Z,2.22
2022-12-25T12:01:39.809Z,2.17
2022-12-25T12:03:46.476Z,2.30
2022-12-25T12:05:58.152Z,2.03
2022-12-25T12:08:05.567Z,2.15
2022-12-25T12:10:19.172Z,1.88
2022-12-25T12:12:34.337Z,1.80
2022-12-25T12:14:53.734Z,1.92
2022-12-25T12:17:02.382Z,1.50
2022-12-25T12:19:15.903Z,1.65
2022-12-25T12:21:25.834Z,1.65
2022-12-25T12:23:33.274Z,1.75
2022-12-25T12:25:42.900Z,1.95
2022-12-25T12:27:48.479Z,1.60
2022-12-25T12:29:56.392Z,1.40
2022-12-25T12:32:06.708Z,1.60
2022-12-25T12:34:29.219Z,1.55
2022-12-25T12:36:36.709Z,1.60
2022-12-25T12:38:43.604Z,1.98
2022-12-25T12:40:56.974Z,1.30
2022-12-25T12:43:02.936Z,1.23
2022-12-25T12:45:13.429Z,1.65
2022-12-25T12:47:40.161Z,1.77
2022-12-25T12:49:45.510Z,1.58
2022-12-25T12:51:51.401Z,1.50
2022-12-25T12:54:17.638Z,1.70
2022-12-25T12:56:25.691Z,1.80
2022-12-25T12:58:34.014Z,1.75
2022-12-25T13:00:48.351Z,1.67
2022-12-25T13:03:26.352Z,1.60
2022-12-25T13:05:41.692Z,1.35
2022-12-25T13:07:59.098Z,1.60
2022-12-25T13:10:18.154Z,1.40
2022-12-25T13:12:24.848Z,1.90
2022-12-25T13:14:30.150Z,2.05
2022-12-25T13:16:40.402Z,2.00
2022-12-25T13:18:48.224Z,2.13
2022-12-25T13:23:03.468Z,2.40
2022-12-25T13:25:21.804Z,1.80
2022-12-25T13:27:29.893Z,1.90
2022-12-25T13:29:39.531Z,1.88
2022-12-25T13:31:44.836Z,1.58
2022-12-25T13:34:00.989Z,1.88
2022-12-25T13:36:07.167Z,1.80
2022-12-25T13:38:17.483Z,2.22
2022-12-25T13:40:28.531Z,2.13
2022-12-25T13:42:33.036Z,2.28
2022-12-25T13:44:50.525Z,2.00
2022-12-25T13:46:55.652Z,1.90
2022-12-25T13:49:04.600Z,1.92
2022-12-25T13:51:17.116Z,2.30
2022-12-25T13:53:22.389Z,2.20
2022-12-25T13:55:30.574Z,1.75
2022-12-25T13:57:41.226Z,2.17
2022-12-25T13:59:47.875Z,1.73
2022-12-25T14:01:57.783Z,2.20
2022-12-25T14:04:06.629Z,2.15
2022-12-25T14:06:22.644Z,2.00
2022-12-25T14:08:31.606Z,2.30
2022-12-25T14:10:40.941Z,2.05
2022-12-25T14:12:46.281Z,1.88
2022-12-25T14:14:53.427Z,2.10
2022-12-25T14:17:01.867Z,1.80
2022-12-25T14:19:30.525Z,2.05
2022-12-25T14:21:41.263Z,1.75
2022-12-25T14:23:48.712Z,2.03
2022-12-25T14:25:54.363Z,1.80
2022-12-25T14:28:00.021Z,2.00
2022-12-25T14:30:06.524Z,2.08
2022-12-25T14:32:18.594Z,2.28
2022-12-25T14:34:32.143Z,2.15
2022-12-25T14:36:37.836Z,2.50
2022-12-25T14:38:44.269Z,2.05
2022-12-25T14:40:49.304Z,2.50
2022-12-25T14:42:59.400Z,2.17
2022-12-25T14:45:08.716Z,2.38
2022-12-25T14:47:20.978Z,2.33
2022-12-25T14:49:28.763Z,2.83
2022-12-25T14:51:41.583Z,2.80
2022-12-25T14:53:53.919Z,3.05
2022-12-25T14:55:58.900Z,2.70
2022-12-25T14:58:08.239Z,2.45
2022-12-25T15:00:27.817Z,3.50
2022-12-25T15:02:47.235Z,3.13
2022-12-25T15:04:56.116Z,3.00
2022-12-25T15:07:07.490Z,2.97
2022-12-25T15:09:19.149Z,3.20
2022-12-25T15:11:24.954Z,3.25
2022-12-25T15:13:30.930Z,3.17
2022-12-25T15:15:37.295Z,3.10
2022-12-25T15:17:42.715Z,3.78
2022-12-25T15:19:47.787Z,3.83
2022-12-25T15:21:55.600Z,3.83
2022-12-25T15:26:06.976Z,3.78
2022-12-25T15:28:13.971Z,3.60
2022-12-25T15:30:19.419Z,3.63
2022-12-25T15:32:26.796Z,3.50
2022-12-25T15:34:31.713Z,3.42
2022-12-25T15:36:36.933Z,3.45
2022-12-25T15:38:44.539Z,4.00
2022-12-25T15:42:56.487Z,4.18
2022-12-25T15:45:01.771Z,4.28
2022-12-25T15:47:06.998Z,4.72
2022-12-25T15:49:13.254Z,4.50
2022-12-25T15:51:18.448Z,5.13
2022-12-25T15:53:24.135Z,5.53
2022-12-25T15:55:31.896Z,5.50
2022-12-25T15:59:41.716Z,4.57
2022-12-25T16:01:51.215Z,4.90
2022-12-25T16:03:57.112Z,5.00
2022-12-25T16:06:02.093Z,3.90
2022-12-25T16:08:08.961Z,4.47
2022-12-25T16:10:19.865Z,3.80
2022-12-25T16:12:27.413Z,4.80
2022-12-25T16:14:32.361Z,4.90
2022-12-25T16:16:37.696Z,4.88
2022-12-25T16:18:47.399Z,4.35
2022-12-25T16:20:53.071Z,4.30
2022-12-25T16:22:58.252Z,3.55
2022-12-25T16:25:03.549Z,3.90
2022-12-25T16:27:08.679Z,3.60
2022-12-25T16:29:16.227Z,4.63
2022-12-25T16:31:21.453Z,4.18
2022-12-25T16:33:26.719Z,4.47
2022-12-25T16:35:31.862Z,4.88
2022-12-25T16:37:38.114Z,4.20
2022-12-25T16:39:43.024Z,4.03
2022-12-25T16:41:48.100Z,4.13
2022-12-25T16:43:53.075Z,3.95
2022-12-25T16:46:00.678Z,4.80
2022-12-25T16:48:05.648Z,4.45
2022-12-25T16:50:12.551Z,4.22
2022-12-25T16:52:17.523Z,4.40
2022-12-25T16:54:22.443Z,4.63
2022-12-25T16:56:28.597Z,4.70
2022-12-25T16:58:34.903Z,4.53
2022-12-25T17:00:43.069Z,4.38
2022-12-25T17:02:53.498Z,4.30
2022-12-25T17:04:59.421Z,4.10
2022-12-25T17:07:05.470Z,4.40
2022-12-25T17:09:10.652Z,3.92
2022-12-25T17:11:16.283Z,4.20
2022-12-25T17:13:21.743Z,5.05
2022-12-25T17:15:26.648Z,4.25
2022-12-25T17:17:31.576Z,4.13
2022-12-25T17:19:39.145Z,4.60
2022-12-25T17:21:44.102Z,3.65
2022-12-25T17:23:49.073Z,4.60
2022-12-25T17:25:54.082Z,4.53
2022-12-25T17:27:59.013Z,4.30
2022-12-25T17:30:03.910Z,4.15
2022-12-25T17:32:09.703Z,4.40
2022-12-25T17:34:15.008Z,3.97
2022-12-25T17:36:24.559Z,4.57
2022-12-25T17:38:31.192Z,4.10
2022-12-25T17:40:36.631Z,3.85
2022-12-25T17:42:41.574Z,3.83
2022-12-25T17:44:46.542Z,4.40
2022-12-25T17:46:52.583Z,4.75
2022-12-25T17:49:01.139Z,5.10
2022-12-25T17:51:08.291Z,5.05
2022-12-25T17:53:15.943Z,5.10
2022-12-25T17:55:21.089Z,4.30
2022-12-25T17:57:26.025Z,4.40
2022-12-25T17:59:30.995Z,4.50
2022-12-25T18:01:37.662Z,4.68
2022-12-25T18:03:43.804Z,4.67
2022-12-25T18:05:49.424Z,5.25
2022-12-25T18:07:54.374Z,5.15
2022-12-25T18:10:01.881Z,5.43
2022-12-25T18:12:07.917Z,4.90
2022-12-25T18:14:17.236Z,4.97
2022-12-25T18:16:26.014Z,4.93
2022-12-25T18:18:31.134Z,4.70
2022-12-25T18:20:40.183Z,5.00
2022-12-25T18:22:45.533Z,4.60
2022-12-25T18:24:50.702Z,5.45
2022-12-25T18:26:58.237Z,4.90
2022-12-25T18:29:03.784Z,5.10
2022-12-25T18:31:11.704Z,4.53
2022-12-25T18:33:16.999Z,4.93
2022-12-25T18:35:21.973Z,6.15
2022-12-25T18:37:28.024Z,7.15
2022-12-25T18:39:33.523Z,6.30
2022-12-25T18:41:58.748Z,6.22
2022-12-25T18:44:06.618Z,5.93
2022-12-25T18:46:11.944Z,6.57
2022-12-25T18:48:16.903Z,6.13
2022-12-25T18:50:22.056Z,6.13
2022-12-25T18:52:50.079Z,6.63
2022-12-25T18:54:53.795Z,5.47
2022-12-25T18:57:02.338Z,5.55
2022-12-25T18:59:12.855Z,5.30
2022-12-25T19:01:20.805Z,4.90
2022-12-25T19:03:25.912Z,5.10
2022-12-25T19:05:30.890Z,4.68
2022-12-25T19:07:35.912Z,4.50
2022-12-25T19:09:40.872Z,5.00
2022-12-25T19:11:47.011Z,4.95
2022-12-25T19:13:52.535Z,5.30
2022-12-25T19:16:03.080Z,5.50
2022-12-25T19:18:08.650Z,5.68
2022-12-25T19:20:15.036Z,5.13
2022-12-25T19:22:20.340Z,5.88
2022-12-25T19:24:26.882Z,5.15
2022-12-25T19:26:32.099Z,4.90
2022-12-25T19:28:37.148Z,5.63
2022-12-25T19:30:42.463Z,5.35
2022-12-25T19:32:50.149Z,5.28
2022-12-25T19:34:55.068Z,5.28
2022-12-25T19:37:00.555Z,5.10
2022-12-25T19:39:06.366Z,5.28
2022-12-25T19:41:13.583Z,5.60
2022-12-25T19:43:18.511Z,5.10
2022-12-25T19:45:24.380Z,4.80
2022-12-25T19:47:29.360Z,4.82
2022-12-25T19:49:36.843Z,5.40
2022-12-25T19:51:45.074Z,5.20
2022-12-25T19:53:50.528Z,5.78
2022-12-25T19:55:56.516Z,5.72
2022-12-25T19:58:01.768Z,5.95
2022-12-25T20:00:08.182Z,5.82
2022-12-25T20:02:18.552Z,6.28
2022-12-25T20:04:23.921Z,6.68
2022-12-25T20:06:35.582Z,6.88
2022-12-25T20:08:40.524Z,5.80
2022-12-25T20:10:46.943Z,6.20
2022-12-25T20:12:53.018Z,6.60
2022-12-25T20:14:57.991Z,6.15
2022-12-25T20:17:02.990Z,6.43
2022-12-25T20:19:08.601Z,7.03
2022-12-25T20:21:17.792Z,6.93
2022-12-25T20:23:25.319Z,6.28
2022-12-25T20:25:30.446Z,6.80
2022-12-25T20:27:35.377Z,5.82
2022-12-25T20:29:41.319Z,6.05
2022-12-25T20:31:46.357Z,6.57
2022-12-25T20:33:51.398Z,6.55
2022-12-25T20:35:59.998Z,6.72
2022-12-25T20:38:05.017Z,6.10
2022-12-25T20:40:15.165Z,6.45
2022-12-25T20:42:21.464Z,7.40
2022-12-25T20:44:26.504Z,7.30
2022-12-25T20:46:31.531Z,8.00
2022-12-25T20:48:37.291Z,7.05
2022-12-25T20:50:42.372Z,7.68
2022-12-25T20:52:47.397Z,7.38
2022-12-25T20:54:52.435Z,7.43
2022-12-25T20:57:00.106Z,7.70
2022-12-25T20:59:05.750Z,7.55
2022-12-25T21:01:14.087Z,7.80
2022-12-25T21:03:22.405Z,7.70
2022-12-25T21:05:27.407Z,7.72
2022-12-25T21:07:32.431Z,7.70
2022-12-25T21:09:37.512Z,7.07
2022-12-25T21:11:42.482Z,8.07
2022-12-25T21:13:51.305Z,8.13
2022-12-25T21:15:56.688Z,7.65
2022-12-25T21:18:02.961Z,7.38
2022-12-25T21:20:10.471Z,7.68
2022-12-25T21:22:17.029Z,6.60
2022-12-25T21:26:31.801Z,7.43
2022-12-25T21:28:37.701Z,7.97
2022-12-25T21:30:45.728Z,8.23
2022-12-25T21:33:14.755Z,7.57
2022-12-25T21:35:21.856Z,6.82
2022-12-25T21:37:27.556Z,7.38
2022-12-25T21:39:32.531Z,7.78
2022-12-25T21:41:41.259Z,7.22
2022-12-25T21:43:46.200Z,7.78
2022-12-25T21:45:53.728Z,7.65
2022-12-25T21:48:02.655Z,8.18
2022-12-25T21:50:22.860Z,8.18
2022-12-25T21:52:27.807Z,8.07
2022-12-25T21:54:32.770Z,7.40
2022-12-25T21:56:43.932Z,8.60
2022-12-25T21:58:49.918Z,8.25
2022-12-25T22:00:57.527Z,8.20
2022-12-25T22:03:02.597Z,8.82
2022-12-25T22:05:09.286Z,7.90
2022-12-25T22:07:19.406Z,8.85
2022-12-25T22:09:25.341Z,8.95
2022-12-25T22:11:42.977Z,8.43
2022-12-25T22:14:00.803Z,10.20
2022-12-25T22:16:22.421Z,8.38
2022-12-25T22:18:39.872Z,8.32
2022-12-25T22:20:45.140Z,8.40
2022-12-25T22:22:50.460Z,8.35
2022-12-25T22:24:59.474Z,8.27
2022-12-25T22:27:04.402Z,7.03
2022-12-25T22:29:10.356Z,6.03
2022-12-25T22:31:17.960Z,5.63
2022-12-25T22:33:25.508Z,5.03
2022-12-25T22:35:30.427Z,5.72
2022-12-25T22:37:35.979Z,5.15
2022-12-25T22:39:41.171Z,4.85
2022-12-25T22:41:46.095Z,4.53
2022-12-25T22:44:16.718Z,4.22
2022-12-25T22:46:19.091Z,4.80
2022-12-25T22:50:28.872Z,4.63
2022-12-25T22:52:33.853Z,4.70
2022-12-25T22:54:39.185Z,4.07
2022-12-25T22:56:45.325Z,3.75
2022-12-25T22:58:50.994Z,3.78
2022-12-25T23:00:57.091Z,4.32
2022-12-25T23:03:04.759Z,4.38
2022-12-25T23:05:11.153Z,3.80
2022-12-25T23:07:16.493Z,4.40
2022-12-25T23:09:27.865Z,3.95
2022-12-25T23:11:35.800Z,4.15
2022-12-25T23:13:53.858Z,4.60
2022-12-25T23:16:00.011Z,4.00
2022-12-25T23:18:20.866Z,4.22
2022-12-25T23:20:39.199Z,4.50
2022-12-25T23:22:57.268Z,3.97
2022-12-25T23:25:15.417Z,3.72
2022-12-25T23:27:21.119Z,3.85
2022-12-25T23:29:39.422Z,4.00
2022-12-25T23:31:45.289Z,4.70
2022-12-25T23:33:52.840Z,4.07
2022-12-25T23:35:57.791Z,4.10
2022-12-25T23:38:02.721Z,4.35
2022-12-25T23:40:10.356Z,4.38
2022-12-25T23:42:15.438Z,4.40
2022-12-25T23:44:21.893Z,4.07
2022-12-25T23:46:26.871Z,4.25
2022-12-25T23:48:31.842Z,3.95
2022-12-25T23:50:39.606Z,4.13
2022-12-25T23:54:49.604Z,4.00
2022-12-25T23:56:54.927Z,3.75
2022-12-25T23:59:00.247Z,4.00
